createdAt,value
2023-04-29T00:00:49.008Z,431.27
2023-04-29T00:01:52.074Z,395.10
2023-04-29T00:02:57.082Z,437.23
2023-04-29T00:03:59.574Z,447.85
2023-04-29T00:05:05.475Z,405.27
2023-04-29T00:06:08.121Z,320.17
2023-04-29T00:07:15.658Z,375.83
2023-04-29T00:08:17.754Z,241.95
2023-04-29T00:09:31.658Z,323.15
2023-04-29T00:10:33.785Z,331.23
2023-04-29T00:11:38.546Z,432.35
2023-04-29T00:12:41.438Z,458.50
2023-04-29T00:13:48.727Z,403.20
2023-04-29T00:14:50.964Z,287.60
2023-04-29T00:16:08.857Z,391.60
2023-04-29T00:17:10.953Z,467.88
2023-04-29T00:18:15.801Z,464.83
2023-04-29T00:19:19.102Z,412.33
2023-04-29T00:20:23.761Z,452.25
2023-04-29T00:21:27.605Z,375.20
2023-04-29T00:22:32.323Z,436.40
2023-04-29T00:23:37.587Z,469.80
2023-04-29T00:24:42.300Z,375.88
2023-04-29T00:25:44.424Z,523.30
2023-04-29T00:26:49.100Z,411.23
2023-04-29T00:27:51.297Z,468.42
2023-04-29T00:28:58.556Z,448.27
2023-04-29T00:30:00.822Z,446.35
2023-04-29T00:31:05.736Z,402.50
2023-04-29T00:32:08.072Z,392.25
2023-04-29T00:33:12.855Z,433.48
2023-04-29T00:34:14.976Z,456.02
2023-04-29T00:35:19.836Z,471.52
2023-04-29T00:36:22.029Z,539.33
2023-04-29T00:37:26.885Z,491.95
2023-04-29T00:38:29.147Z,514.22
2023-04-29T00:39:34.124Z,499.30
2023-04-29T00:40:36.479Z,522.45
2023-04-29T00:41:41.194Z,444.15
2023-04-29T00:42:43.532Z,459.65
2023-04-29T00:43:48.235Z,490.48
2023-04-29T00:44:53.079Z,464.35
2023-04-29T00:45:57.987Z,484.23
2023-04-29T00:47:00.952Z,469.98
2023-04-29T00:48:05.941Z,710.60
2023-04-29T00:49:09.129Z,612.03
2023-04-29T00:50:14.285Z,533.47
2023-04-29T00:51:18.564Z,465.77
2023-04-29T00:52:23.366Z,496.48
2023-04-29T00:53:25.553Z,450.35
2023-04-29T00:54:30.609Z,473.42
2023-04-29T00:55:33.842Z,502.90
2023-04-29T00:56:40.576Z,538.63
2023-04-29T00:57:42.896Z,470.80
2023-04-29T00:58:50.495Z,512.38
2023-04-29T00:59:55.532Z,549.83
2023-04-29T01:01:00.311Z,428.85
2023-04-29T01:02:03.284Z,459.83
2023-04-29T01:03:29.479Z,414.20
2023-04-29T01:04:31.887Z,546.55
2023-04-29T01:05:36.682Z,538.40
2023-04-29T01:06:50.100Z,460.00
2023-04-29T01:08:07.060Z,608.03
2023-04-29T01:09:27.384Z,501.08
2023-04-29T01:10:34.897Z,445.65
2023-04-29T01:11:54.510Z,568.70
2023-04-29T01:13:09.881Z,513.40
2023-04-29T01:14:12.841Z,546.33
2023-04-29T01:15:25.570Z,417.80
2023-04-29T01:16:38.147Z,544.20
2023-04-29T01:17:48.219Z,617.20
2023-04-29T01:18:54.886Z,446.27
2023-04-29T01:20:02.059Z,441.50
2023-04-29T01:21:04.482Z,507.85
2023-04-29T01:22:09.305Z,516.97
2023-04-29T01:23:11.400Z,357.20
2023-04-29T01:24:18.959Z,427.20
2023-04-29T01:25:21.059Z,375.25
2023-04-29T01:26:26.657Z,391.73
2023-04-29T01:27:33.893Z,378.55
2023-04-29T01:28:49.944Z,417.45
2023-04-29T01:29:57.014Z,457.13
2023-04-29T01:31:09.930Z,464.33
2023-04-29T01:32:17.814Z,418.10
2023-04-29T01:33:32.626Z,296.45
2023-04-29T01:34:43.038Z,397.60
2023-04-29T01:35:59.257Z,419.77
2023-04-29T01:37:10.442Z,364.98
2023-04-29T01:38:26.654Z,365.45
2023-04-29T01:39:40.509Z,419.30
2023-04-29T01:40:56.872Z,515.25
2023-04-29T01:42:11.659Z,414.60
2023-04-29T01:43:18.590Z,514.63
2023-04-29T01:44:24.127Z,435.40
2023-04-29T01:45:30.394Z,516.88
2023-04-29T01:46:35.557Z,529.03
2023-04-29T01:47:39.478Z,479.38
2023-04-29T01:48:44.466Z,480.77
2023-04-29T01:49:47.240Z,661.38
2023-04-29T01:50:52.501Z,688.20
2023-04-29T01:51:55.210Z,713.90
2023-04-29T01:53:00.010Z,690.80
2023-04-29T01:54:02.283Z,706.30
2023-04-29T01:55:11.332Z,675.45
2023-04-29T01:56:13.527Z,539.63
2023-04-29T01:57:18.289Z,515.65
2023-04-29T01:58:20.741Z,542.00
2023-04-29T01:59:25.438Z,546.38
2023-04-29T02:00:27.643Z,527.80
2023-04-29T02:01:32.315Z,673.35
2023-04-29T02:02:34.420Z,660.10
2023-04-29T02:03:41.714Z,674.83
2023-04-29T02:04:43.944Z,529.55
2023-04-29T02:05:50.677Z,615.38
2023-04-29T02:06:53.128Z,669.15
2023-04-29T02:07:57.891Z,652.30
2023-04-29T02:09:00.009Z,694.40
2023-04-29T02:10:04.730Z,676.38
2023-04-29T02:11:12.071Z,620.75
2023-04-29T02:12:14.155Z,742.67
2023-04-29T02:13:18.811Z,442.40
2023-04-29T02:14:23.533Z,309.98
2023-04-29T02:15:27.017Z,444.75
2023-04-29T02:16:31.863Z,389.30
2023-04-29T02:17:34.261Z,331.20
2023-04-29T02:18:39.095Z,532.28
2023-04-29T02:19:41.239Z,421.73
2023-04-29T02:20:46.401Z,454.75
2023-04-29T02:21:51.590Z,367.95
2023-04-29T02:22:56.327Z,379.00
2023-04-29T02:23:58.408Z,394.40
2023-04-29T02:25:03.133Z,412.65
2023-04-29T02:26:06.459Z,352.27
2023-04-29T02:27:13.814Z,416.20
2023-04-29T02:28:15.936Z,321.92
2023-04-29T02:29:20.643Z,364.70
2023-04-29T02:30:22.901Z,367.88
2023-04-29T02:31:29.387Z,226.35
2023-04-29T02:32:31.904Z,395.52
2023-04-29T02:33:36.696Z,359.95
2023-04-29T02:34:38.723Z,408.85
2023-04-29T02:35:43.676Z,501.02
2023-04-29T02:36:45.718Z,410.17
2023-04-29T02:37:50.531Z,560.38
2023-04-29T02:38:55.372Z,351.27
2023-04-29T02:40:00.310Z,419.63
2023-04-29T02:41:02.421Z,403.77
2023-04-29T02:42:07.287Z,515.63
2023-04-29T02:43:15.040Z,385.17
2023-04-29T02:44:17.225Z,929.10
2023-04-29T02:45:22.582Z,439.85
2023-04-29T02:46:24.849Z,418.30
2023-04-29T02:47:29.623Z,525.38
2023-04-29T02:48:31.734Z,688.45
2023-04-29T02:49:37.294Z,930.28
2023-04-29T02:50:39.415Z,851.60
2023-04-29T02:51:44.276Z,661.17
2023-04-29T02:52:46.769Z,467.77
2023-04-29T02:53:51.432Z,457.45
2023-04-29T02:54:53.545Z,387.98
2023-04-29T02:55:58.444Z,406.27
2023-04-29T02:57:00.600Z,416.05
2023-04-29T02:58:05.365Z,431.20
2023-04-29T02:59:10.200Z,395.40
2023-04-29T03:00:15.437Z,429.02
2023-04-29T03:01:17.614Z,447.20
2023-04-29T03:02:22.486Z,383.73
2023-04-29T03:03:24.784Z,457.42
2023-04-29T03:04:29.736Z,280.63
2023-04-29T03:05:32.219Z,396.05
2023-04-29T03:06:36.980Z,491.40
2023-04-29T03:07:39.103Z,467.73
2023-04-29T03:08:43.809Z,441.30
2023-04-29T03:09:45.866Z,489.80
2023-04-29T03:10:50.549Z,376.05
2023-04-29T03:11:55.300Z,438.67
2023-04-29T03:12:57.325Z,458.98
2023-04-29T03:14:02.112Z,540.17
2023-04-29T03:15:08.068Z,455.83
2023-04-29T03:16:14.017Z,465.95
2023-04-29T03:17:16.263Z,467.05
2023-04-29T03:18:20.982Z,518.13
2023-04-29T03:19:23.132Z,400.98
2023-04-29T03:20:27.810Z,460.98
2023-04-29T03:21:30.407Z,455.23
2023-04-29T03:22:35.122Z,477.98
2023-04-29T03:23:39.562Z,538.33
2023-04-29T03:24:44.859Z,465.40
2023-04-29T03:25:47.030Z,418.70
2023-04-29T03:26:51.727Z,509.40
2023-04-29T03:27:53.822Z,776.55
2023-04-29T03:28:58.767Z,478.75
2023-04-29T03:30:01.010Z,494.38
2023-04-29T03:31:08.563Z,468.38
2023-04-29T03:32:11.183Z,662.53
2023-04-29T03:33:15.855Z,437.17
2023-04-29T03:34:18.129Z,634.15
2023-04-29T03:35:23.037Z,721.92
2023-04-29T03:36:28.182Z,588.13
2023-04-29T03:37:30.515Z,612.95
2023-04-29T03:38:35.197Z,1365.53
2023-04-29T03:39:37.273Z,535.67
2023-04-29T03:40:42.038Z,511.92
2023-04-29T03:41:44.219Z,560.85
2023-04-29T03:42:48.969Z,481.05
2023-04-29T03:43:51.996Z,415.33
2023-04-29T03:44:56.712Z,549.70
2023-04-29T03:45:58.994Z,447.90
2023-04-29T03:47:06.928Z,421.42
2023-04-29T03:48:09.680Z,455.30
2023-04-29T03:49:14.568Z,491.75
2023-04-29T03:50:16.730Z,514.83
2023-04-29T03:51:21.703Z,572.13
2023-04-29T03:52:23.995Z,487.95
2023-04-29T03:53:29.166Z,504.02
2023-04-29T03:54:31.612Z,492.25
2023-04-29T03:55:36.295Z,569.95
2023-04-29T03:56:41.323Z,568.20
2023-04-29T03:57:46.037Z,610.92
2023-04-29T03:58:48.179Z,573.78
2023-04-29T03:59:53.132Z,677.35
2023-04-29T04:00:55.552Z,542.42
2023-04-29T04:02:00.303Z,573.28
2023-04-29T04:03:05.850Z,556.60
2023-04-29T04:04:11.103Z,524.08
2023-04-29T04:05:13.770Z,599.90
2023-04-29T04:06:18.704Z,519.47
2023-04-29T04:07:20.994Z,541.67
2023-04-29T04:08:25.636Z,528.00
2023-04-29T04:09:27.713Z,571.17
2023-04-29T04:10:32.431Z,555.10
2023-04-29T04:11:34.502Z,451.92
2023-04-29T04:13:15.722Z,512.70
2023-04-29T04:14:19.198Z,454.17
2023-04-29T04:15:24.065Z,444.30
2023-04-29T04:16:26.263Z,480.10
2023-04-29T04:17:31.002Z,467.50
2023-04-29T04:18:35.665Z,397.20
2023-04-29T04:19:40.374Z,435.35
2023-04-29T04:20:42.425Z,498.63
2023-04-29T04:21:47.073Z,516.15
2023-04-29T04:22:49.232Z,437.30
2023-04-29T04:23:53.880Z,444.90
2023-04-29T04:24:55.969Z,432.25
2023-04-29T04:26:00.664Z,365.63
2023-04-29T04:27:05.484Z,461.00
2023-04-29T04:28:07.666Z,544.78
2023-04-29T04:29:12.424Z,471.17
2023-04-29T04:30:14.521Z,421.95
2023-04-29T04:31:19.254Z,568.20
2023-04-29T04:32:22.027Z,451.42
2023-04-29T04:33:27.629Z,391.05
2023-04-29T04:34:32.606Z,469.02
2023-04-29T04:35:37.353Z,455.35
2023-04-29T04:36:39.440Z,474.77
2023-04-29T04:37:44.139Z,528.75
2023-04-29T04:38:46.271Z,444.27
2023-04-29T04:39:51.308Z,451.17
2023-04-29T04:40:53.537Z,400.98
2023-04-29T04:41:58.196Z,412.85
2023-04-29T04:43:00.938Z,442.85
2023-04-29T04:44:06.590Z,359.83
2023-04-29T04:45:11.556Z,447.80
2023-04-29T04:46:17.608Z,455.45
2023-04-29T04:47:19.765Z,439.45
2023-04-29T04:48:24.498Z,432.70
2023-04-29T04:49:27.474Z,443.60
2023-04-29T04:50:35.082Z,385.88
2023-04-29T04:51:37.200Z,442.40
2023-04-29T04:52:42.643Z,533.80
2023-04-29T04:53:44.704Z,423.30
2023-04-29T04:54:49.400Z,427.20
2023-04-29T04:55:51.484Z,532.35
2023-04-29T04:56:56.206Z,451.92
2023-04-29T04:57:58.751Z,560.40
2023-04-29T04:59:03.895Z,433.92
2023-04-29T05:00:08.183Z,421.30
2023-04-29T05:01:12.870Z,466.85
2023-04-29T05:02:15.050Z,430.90
2023-04-29T05:03:19.895Z,446.83
2023-04-29T05:04:22.178Z,299.55
2023-04-29T05:05:26.949Z,475.73
2023-04-29T05:06:32.107Z,361.15
2023-04-29T05:07:37.775Z,445.27
2023-04-29T05:08:39.909Z,465.10
2023-04-29T05:09:44.651Z,479.63
2023-04-29T05:10:46.761Z,462.40
2023-04-29T05:11:51.532Z,493.83
2023-04-29T05:12:53.558Z,490.75
2023-04-29T05:13:58.413Z,447.58
2023-04-29T05:15:00.543Z,510.50
2023-04-29T05:16:06.722Z,515.55
2023-04-29T05:17:11.678Z,469.20
2023-04-29T05:18:13.776Z,542.25
2023-04-29T05:19:18.550Z,491.17
2023-04-29T05:20:20.863Z,538.58
2023-04-29T05:21:25.630Z,509.67
2023-04-29T05:22:30.315Z,509.23
2023-04-29T05:23:35.023Z,505.42
2023-04-29T05:24:37.120Z,501.52
2023-04-29T05:25:41.789Z,483.50
2023-04-29T05:26:44.433Z,559.13
2023-04-29T05:27:49.193Z,554.95
2023-04-29T05:28:51.338Z,534.65
2023-04-29T05:29:56.068Z,505.90
2023-04-29T05:30:58.199Z,480.40
2023-04-29T05:32:02.965Z,524.28
2023-04-29T05:33:05.317Z,458.60
2023-04-29T05:34:10.097Z,576.33
2023-04-29T05:35:12.429Z,482.30
2023-04-29T05:36:17.133Z,482.13
2023-04-29T05:37:19.210Z,555.20
2023-04-29T05:38:29.296Z,493.55
2023-04-29T05:39:31.408Z,490.98
2023-04-29T05:40:36.336Z,569.42
2023-04-29T05:41:38.584Z,476.92
2023-04-29T05:42:43.391Z,479.58
2023-04-29T05:43:45.936Z,476.77
2023-04-29T05:44:50.681Z,387.08
2023-04-29T05:45:52.752Z,433.23
2023-04-29T05:46:57.562Z,404.98
2023-04-29T05:47:59.666Z,447.70
2023-04-29T05:49:04.449Z,434.25
2023-04-29T05:50:07.757Z,438.40
2023-04-29T05:51:12.586Z,415.48
2023-04-29T05:52:14.832Z,430.13
2023-04-29T05:53:19.568Z,379.95
2023-04-29T05:54:24.616Z,428.40
2023-04-29T05:55:29.385Z,428.02
2023-04-29T05:56:34.549Z,382.50
2023-04-29T05:57:39.354Z,405.45
2023-04-29T05:58:41.472Z,409.00
2023-04-29T05:59:46.124Z,469.67
2023-04-29T06:00:49.645Z,429.20
2023-04-29T06:01:54.329Z,450.88
2023-04-29T06:02:59.194Z,410.60
2023-04-29T06:04:04.392Z,396.25
2023-04-29T06:05:08.444Z,445.38
2023-04-29T06:06:13.956Z,420.77
2023-04-29T06:07:18.297Z,348.92
2023-04-29T06:08:24.892Z,442.15
2023-04-29T06:09:33.495Z,452.25
2023-04-29T06:10:38.180Z,445.23
2023-04-29T06:11:40.521Z,582.08
2023-04-29T06:12:45.203Z,404.90
2023-04-29T06:13:47.263Z,432.48
2023-04-29T06:14:52.511Z,511.50
2023-04-29T06:15:54.791Z,345.23
2023-04-29T06:16:59.621Z,490.00
2023-04-29T06:18:04.348Z,455.35
2023-04-29T06:19:06.576Z,393.98
2023-04-29T06:20:12.982Z,382.70
2023-04-29T06:21:16.085Z,342.58
2023-04-29T06:22:20.752Z,282.05
2023-04-29T06:23:22.905Z,394.92
2023-04-29T06:24:27.587Z,364.05
2023-04-29T06:25:32.317Z,405.23
2023-04-29T06:26:37.271Z,405.52
2023-04-29T06:29:34.299Z,408.75
2023-04-29T06:30:36.655Z,430.38
2023-04-29T06:31:41.440Z,427.48
2023-04-29T06:32:43.580Z,510.65
2023-04-29T06:33:48.234Z,467.65
2023-04-29T06:34:50.614Z,511.20
2023-04-29T06:35:55.433Z,414.65
2023-04-29T06:36:57.497Z,417.23
2023-04-29T06:38:02.195Z,399.75
2023-04-29T06:39:04.530Z,394.40
2023-04-29T06:40:10.894Z,431.60
2023-04-29T06:41:15.625Z,351.77
2023-04-29T06:42:20.208Z,336.20
2023-04-29T06:43:22.321Z,435.83
2023-04-29T06:44:27.784Z,407.23
2023-04-29T06:45:29.934Z,391.60
2023-04-29T06:46:34.910Z,391.50
2023-04-29T06:47:37.266Z,338.75
2023-04-29T06:48:41.978Z,380.05
2023-04-29T06:49:44.155Z,465.15
2023-04-29T06:50:55.741Z,533.70
2023-04-29T06:53:04.535Z,473.77
2023-04-29T06:54:09.139Z,373.88
2023-04-29T06:55:11.560Z,409.73
2023-04-29T06:56:18.758Z,374.70
2023-04-29T06:57:21.063Z,354.90
2023-04-29T06:58:25.683Z,342.45
2023-04-29T06:59:27.764Z,366.55
2023-04-29T07:00:32.465Z,336.23
2023-04-29T07:01:34.996Z,397.55
2023-04-29T07:02:39.816Z,373.52
2023-04-29T07:03:42.536Z,275.80
2023-04-29T07:04:47.489Z,427.50
2023-04-29T07:05:49.572Z,382.13
2023-04-29T07:06:54.536Z,397.75
2023-04-29T07:07:59.291Z,402.02
2023-04-29T07:09:03.932Z,403.83
2023-04-29T07:10:06.774Z,254.55
2023-04-29T07:11:11.517Z,366.42
2023-04-29T07:12:18.773Z,354.33
2023-04-29T07:13:20.809Z,409.00
2023-04-29T07:14:25.650Z,272.88
2023-04-29T07:15:28.042Z,335.60
2023-04-29T07:16:32.789Z,382.50
2023-04-29T07:17:37.672Z,320.88
2023-04-29T07:18:39.884Z,396.25
2023-04-29T07:19:44.626Z,311.88
2023-04-29T07:20:48.222Z,561.67
2023-04-29T07:21:52.969Z,458.08
2023-04-29T07:22:55.166Z,379.25
2023-04-29T07:24:02.495Z,385.67
2023-04-29T07:25:05.141Z,416.45
2023-04-29T07:26:14.225Z,382.40
2023-04-29T07:27:18.864Z,378.25
2023-04-29T07:28:23.557Z,289.77
2023-04-29T07:29:28.200Z,371.65
2023-04-29T07:30:30.575Z,311.30
2023-04-29T07:31:38.034Z,413.33
2023-04-29T07:32:40.625Z,375.77
2023-04-29T07:33:45.523Z,408.02
2023-04-29T07:34:48.956Z,369.08
2023-04-29T07:35:53.603Z,364.90
2023-04-29T07:36:56.496Z,367.88
2023-04-29T07:38:01.430Z,333.20
2023-04-29T07:39:03.768Z,321.90
2023-04-29T07:40:10.462Z,358.25
2023-04-29T07:41:15.163Z,356.30
2023-04-29T07:42:22.543Z,372.95
2023-04-29T07:43:24.741Z,364.08
2023-04-29T07:44:29.421Z,363.38
2023-04-29T07:45:34.040Z,400.67
2023-04-29T07:46:36.185Z,330.38
2023-04-29T07:47:40.849Z,381.50
2023-04-29T07:48:43.028Z,251.68
2023-04-29T07:49:47.643Z,372.67
2023-04-29T07:50:49.739Z,332.58
2023-04-29T07:51:54.392Z,355.50
2023-04-29T07:52:58.095Z,500.70
2023-04-29T07:54:02.835Z,348.50
2023-04-29T07:55:05.871Z,327.83
2023-04-29T07:56:12.120Z,295.45
2023-04-29T07:57:14.328Z,361.45
2023-04-29T07:58:21.617Z,416.60
2023-04-29T07:59:23.665Z,286.13
2023-04-29T08:00:28.531Z,325.15
2023-04-29T08:01:30.594Z,440.48
2023-04-29T08:02:35.344Z,328.20
2023-04-29T08:03:40.758Z,330.23
2023-04-29T08:04:47.125Z,461.38
2023-04-29T08:05:51.555Z,341.00
2023-04-29T08:06:56.293Z,396.25
2023-04-29T08:07:58.345Z,361.90
2023-04-29T08:09:03.304Z,300.60
2023-04-29T08:10:06.911Z,346.85
2023-04-29T08:11:11.832Z,346.33
2023-04-29T08:12:13.868Z,299.30
2023-04-29T08:13:21.110Z,281.60
2023-04-29T08:14:23.170Z,322.65
2023-04-29T08:15:28.292Z,335.42
2023-04-29T08:16:30.825Z,340.30
2023-04-29T08:17:35.652Z,326.08
2023-04-29T08:18:37.945Z,331.13
2023-04-29T08:19:43.087Z,427.50
2023-04-29T08:20:45.181Z,416.65
2023-04-29T08:21:49.889Z,465.48
2023-04-29T08:22:52.012Z,411.85
2023-04-29T08:24:14.703Z,246.90
2023-04-29T08:25:17.193Z,350.90
2023-04-29T08:26:24.121Z,442.95
2023-04-29T08:27:26.968Z,358.98
2023-04-29T08:28:34.304Z,291.65
2023-04-29T08:29:51.887Z,345.58
2023-04-29T08:30:54.079Z,358.50
2023-04-29T08:31:58.890Z,325.30
2023-04-29T08:33:01.058Z,236.88
2023-04-29T08:34:05.765Z,206.77
2023-04-29T08:35:09.171Z,375.23
2023-04-29T08:36:14.065Z,286.35
2023-04-29T08:37:18.466Z,403.98
2023-04-29T08:38:23.497Z,554.90
2023-04-29T08:39:26.182Z,509.02
2023-04-29T08:40:30.956Z,449.45
2023-04-29T08:41:33.314Z,559.83
2023-04-29T08:42:39.222Z,463.60
2023-04-29T08:43:44.090Z,485.33
2023-04-29T08:44:48.829Z,572.70
2023-04-29T08:45:50.984Z,469.05
2023-04-29T08:46:56.102Z,539.45
2023-04-29T08:48:02.323Z,471.05
2023-04-29T08:49:04.612Z,593.88
2023-04-29T08:50:12.035Z,538.40
2023-04-29T08:51:14.131Z,567.42
2023-04-29T08:52:18.848Z,397.17
2023-04-29T08:53:21.246Z,493.75
2023-04-29T08:54:26.321Z,556.08
2023-04-29T08:55:31.249Z,546.00
2023-04-29T08:56:34.311Z,550.08
2023-04-29T08:57:41.143Z,540.97
2023-04-29T08:58:46.728Z,472.00
2023-04-29T08:59:51.451Z,393.85
2023-04-29T09:00:54.120Z,499.55
2023-04-29T09:02:00.290Z,354.15
2023-04-29T09:03:12.484Z,288.02
2023-04-29T09:04:30.853Z,258.10
2023-04-29T09:05:37.259Z,336.30
2023-04-29T09:06:39.399Z,418.98
2023-04-29T09:07:45.163Z,372.73
2023-04-29T09:08:47.271Z,452.65
2023-04-29T09:09:55.290Z,500.42
2023-04-29T09:10:59.115Z,447.25
2023-04-29T09:12:03.825Z,364.48
2023-04-29T09:13:05.939Z,283.65
2023-04-29T09:14:13.238Z,426.75
2023-04-29T09:15:18.262Z,344.85
2023-04-29T09:16:20.323Z,397.88
2023-04-29T09:17:42.361Z,442.40
2023-04-29T09:18:46.968Z,494.20
2023-04-29T09:19:51.690Z,527.50
2023-04-29T09:20:54.527Z,481.35
2023-04-29T09:21:59.319Z,493.52
2023-04-29T09:23:05.193Z,401.80
2023-04-29T09:24:09.832Z,416.60
2023-04-29T09:25:15.392Z,279.33
2023-04-29T09:26:21.085Z,401.17
2023-04-29T09:27:29.442Z,413.15
2023-04-29T09:28:34.328Z,446.13
2023-04-29T09:29:41.735Z,539.67
2023-04-29T09:30:47.365Z,451.30
2023-04-29T09:31:53.861Z,527.03
2023-04-29T09:33:07.704Z,511.27
2023-04-29T09:34:13.306Z,440.73
2023-04-29T09:35:23.338Z,560.55
2023-04-29T09:36:42.285Z,545.22
2023-04-29T09:37:46.990Z,763.92
2023-04-29T09:38:55.255Z,604.70
2023-04-29T09:40:00.280Z,699.03
2023-04-29T09:41:18.222Z,541.30
2023-04-29T09:42:22.962Z,542.92
2023-04-29T09:43:27.689Z,559.72
2023-04-29T09:44:34.338Z,432.58
2023-04-29T09:45:44.459Z,532.85
2023-04-29T09:46:58.448Z,544.15
2023-04-29T09:48:03.276Z,507.67
2023-04-29T09:49:26.319Z,455.92
2023-04-29T09:50:28.937Z,504.52
2023-04-29T09:51:35.172Z,431.65
2023-04-29T09:52:41.941Z,521.53
2023-04-29T09:53:46.809Z,543.60
2023-04-29T09:54:51.820Z,468.08
2023-04-29T09:56:01.898Z,353.25
2023-04-29T09:57:08.924Z,288.42
2023-04-29T09:58:28.693Z,375.40
2023-04-29T09:59:33.674Z,468.48
2023-04-29T10:00:41.399Z,467.67
2023-04-29T10:01:46.736Z,472.85
2023-04-29T10:02:52.709Z,511.77
2023-04-29T10:03:57.094Z,444.42
2023-04-29T10:05:02.258Z,566.33
2023-04-29T10:06:05.974Z,443.00
2023-04-29T10:07:11.900Z,338.40
2023-04-29T10:08:14.480Z,381.63
2023-04-29T10:09:20.130Z,370.65
2023-04-29T10:10:24.716Z,392.95
2023-04-29T10:11:30.028Z,447.23
2023-04-29T10:12:36.287Z,349.23
2023-04-29T10:13:45.232Z,447.52
2023-04-29T10:14:55.475Z,582.85
2023-04-29T10:16:11.145Z,478.83
2023-04-29T10:17:24.061Z,388.23
2023-04-29T10:18:38.195Z,476.95
2023-04-29T10:19:50.483Z,435.33
2023-04-29T10:20:53.969Z,509.20
2023-04-29T10:22:03.623Z,440.23
2023-04-29T10:24:15.055Z,484.27
2023-04-29T10:25:21.704Z,463.63
2023-04-29T10:26:27.199Z,436.35
2023-04-29T10:27:35.135Z,445.95
2023-04-29T10:28:39.920Z,426.13
2023-04-29T10:29:47.293Z,333.15
2023-04-29T10:30:52.157Z,477.20
2023-04-29T10:32:01.636Z,446.75
2023-04-29T10:33:07.826Z,473.63
2023-04-29T10:34:13.127Z,418.48
2023-04-29T10:35:16.937Z,410.40
2023-04-29T10:36:22.915Z,471.85
2023-04-29T10:37:25.960Z,400.27
2023-04-29T10:38:36.336Z,279.70
2023-04-29T10:39:49.744Z,613.25
2023-04-29T10:40:53.913Z,528.15
2023-04-29T10:41:59.981Z,459.20
2023-04-29T10:43:02.115Z,360.63
2023-04-29T10:44:07.241Z,471.50
2023-04-29T10:45:31.477Z,443.17
2023-04-29T10:46:33.937Z,416.42
2023-04-29T10:47:41.338Z,296.80
2023-04-29T10:48:43.864Z,473.13
2023-04-29T10:50:05.232Z,487.65
2023-04-29T10:51:07.441Z,452.05
2023-04-29T10:52:19.625Z,489.45
2023-04-29T10:53:22.558Z,439.45
2023-04-29T10:54:27.220Z,458.02
2023-04-29T10:55:29.582Z,458.63
2023-04-29T10:56:42.874Z,507.48
2023-04-29T10:57:44.973Z,603.42
2023-04-29T10:58:50.028Z,728.88
2023-04-29T10:59:57.054Z,1106.97
2023-04-29T11:00:59.705Z,1116.97
2023-04-29T11:02:04.496Z,1292.60
2023-04-29T11:03:44.322Z,1254.75
2023-04-29T11:05:10.811Z,1290.10
2023-04-29T11:06:12.893Z,1247.85
2023-04-29T11:07:31.181Z,1278.38
2023-04-29T11:08:40.138Z,1233.10
2023-04-29T11:09:44.981Z,1253.75
2023-04-29T11:10:47.798Z,1125.13
2023-04-29T11:12:05.722Z,1294.75
2023-04-29T11:14:55.919Z,1236.55
2023-04-29T11:16:05.321Z,1493.65
2023-04-29T11:17:12.553Z,1133.97
2023-04-29T11:18:18.336Z,1261.32
2023-04-29T11:19:23.230Z,1234.78
2023-04-29T11:20:27.930Z,1112.57
2023-04-29T11:21:31.385Z,1222.28
2023-04-29T11:24:07.569Z,1124.28
2023-04-29T11:25:12.857Z,1240.63
2023-04-29T11:26:15.362Z,1313.97
2023-04-29T11:27:23.168Z,1201.05
2023-04-29T11:28:27.843Z,1092.15
2023-04-29T11:29:31.639Z,1188.88
2023-04-29T11:30:36.778Z,1185.80
2023-04-29T11:31:39.663Z,1187.20
2023-04-29T11:32:45.583Z,1219.55
2023-04-29T11:33:50.500Z,1257.53
2023-04-29T11:34:55.636Z,1219.35
2023-04-29T11:35:58.401Z,1332.95
2023-04-29T11:37:03.200Z,1160.38
2023-04-29T11:38:06.001Z,1133.32
2023-04-29T11:39:11.273Z,1336.82
2023-04-29T11:40:17.660Z,1052.00
2023-04-29T11:41:20.448Z,1167.70
2023-04-29T11:42:25.536Z,1128.50
2023-04-29T11:43:27.700Z,1128.70
2023-04-29T11:44:32.562Z,1290.35
2023-04-29T11:45:36.657Z,820.20
2023-04-29T11:46:41.311Z,425.38
2023-04-29T11:47:45.289Z,534.30
2023-04-29T11:48:53.403Z,494.33
2023-04-29T11:50:03.131Z,1206.30
2023-04-29T11:51:08.222Z,1298.10
2023-04-29T11:52:11.228Z,1124.25
2023-04-29T11:53:15.963Z,1041.13
2023-04-29T11:54:18.053Z,1222.60
2023-04-29T11:55:22.967Z,1192.07
2023-04-29T11:56:25.847Z,1269.80
2023-04-29T11:57:30.598Z,1088.80
2023-04-29T11:58:32.744Z,1121.93
2023-04-29T11:59:37.507Z,1134.97
2023-04-29T12:00:39.616Z,1134.30
2023-04-29T12:01:45.067Z,1049.60
2023-04-29T12:02:47.952Z,1075.20
2023-04-29T12:04:03.025Z,1208.75
2023-04-29T12:05:07.808Z,921.13
2023-04-29T12:06:12.594Z,765.05
2023-04-29T12:07:16.962Z,440.15
2023-04-29T12:08:22.995Z,399.10
2023-04-29T12:09:27.797Z,452.08
2023-04-29T12:10:33.436Z,1024.07
2023-04-29T12:11:36.984Z,1151.53
2023-04-29T12:12:44.206Z,1185.47
2023-04-29T12:13:49.476Z,836.30
2023-04-29T12:14:51.983Z,302.38
2023-04-29T12:15:57.624Z,253.77
2023-04-29T12:16:59.838Z,278.60
2023-04-29T12:18:04.900Z,257.98
2023-04-29T12:19:10.851Z,230.55
2023-04-29T12:20:16.005Z,275.60
2023-04-29T12:21:20.922Z,249.18
2023-04-29T12:22:22.983Z,304.77
2023-04-29T12:23:29.056Z,251.30
2023-04-29T12:24:34.389Z,236.43
2023-04-29T12:25:39.001Z,247.30
2023-04-29T12:26:41.698Z,220.65
2023-04-29T12:27:46.785Z,259.27
2023-04-29T12:28:49.623Z,299.52
2023-04-29T12:29:55.204Z,237.27
2023-04-29T12:30:59.387Z,247.27
2023-04-29T12:32:04.141Z,204.13
2023-04-29T12:33:09.311Z,189.20
2023-04-29T12:34:16.696Z,145.85
2023-04-29T12:35:19.018Z,191.57
2023-04-29T12:36:23.716Z,179.20
2023-04-29T12:37:26.254Z,197.77
2023-04-29T12:38:33.813Z,187.93
2023-04-29T12:39:39.169Z,196.20
2023-04-29T12:40:41.505Z,183.57
2023-04-29T12:41:46.767Z,184.43
2023-04-29T12:42:49.140Z,166.18
2023-04-29T12:43:54.149Z,201.13
2023-04-29T12:44:56.469Z,174.23
2023-04-29T12:46:05.317Z,180.95
2023-04-29T12:47:09.150Z,151.93
2023-04-29T12:48:25.466Z,214.55
2023-04-29T12:49:34.535Z,171.85
2023-04-29T12:50:40.730Z,204.13
2023-04-29T12:51:42.813Z,205.40
2023-04-29T12:52:47.522Z,192.52
2023-04-29T12:53:52.912Z,161.02
2023-04-29T12:54:55.195Z,167.27
2023-04-29T12:56:00.421Z,152.98
2023-04-29T12:57:36.414Z,131.80
2023-04-29T12:58:39.200Z,125.25
2023-04-29T12:59:43.992Z,167.52
2023-04-29T13:00:48.799Z,195.52
2023-04-29T13:01:53.521Z,192.40
2023-04-29T13:02:58.568Z,192.27
2023-04-29T13:04:05.033Z,187.68
2023-04-29T13:05:10.180Z,142.10
2023-04-29T13:06:14.925Z,142.85
2023-04-29T13:07:16.977Z,175.18
2023-04-29T13:08:21.927Z,155.15
2023-04-29T13:09:23.945Z,152.57
2023-04-29T13:10:28.747Z,191.40
2023-04-29T13:11:34.508Z,162.55
2023-04-29T13:12:39.521Z,163.10
2023-04-29T13:13:44.191Z,196.85
2023-04-29T13:14:46.516Z,139.20
2023-04-29T13:15:51.170Z,145.02
2023-04-29T13:16:53.359Z,185.52
2023-04-29T13:17:58.928Z,138.73
2023-04-29T13:19:13.016Z,181.15
2023-04-29T13:20:28.530Z,145.77
2023-04-29T13:21:33.218Z,138.73
2023-04-29T13:22:37.977Z,187.07
2023-04-29T13:23:40.058Z,196.13
2023-04-29T13:24:44.802Z,192.57
2023-04-29T13:25:47.111Z,224.75
2023-04-29T13:26:52.810Z,196.43
2023-04-29T13:27:55.429Z,229.60
2023-04-29T13:29:00.191Z,168.90
2023-04-29T13:30:02.807Z,203.20
2023-04-29T13:31:07.844Z,196.15
2023-04-29T13:32:10.017Z,206.93
2023-04-29T13:33:14.774Z,176.20
2023-04-29T13:34:21.354Z,182.05
2023-04-29T13:35:26.168Z,136.90
2023-04-29T13:36:31.308Z,185.05
2023-04-29T13:37:33.372Z,182.38
2023-04-29T13:38:38.338Z,133.77
2023-04-29T13:39:40.439Z,127.22